sensor_id;sensor_type;location;lat;lon;timestamp;P1;durP1;ratioP1;P2;durP2;ratioP2
32216;SDS011;67098;51.140;4.088;2023-11-21T00:01:01;31.85;;;16.75;;
32216;SDS011;67098;51.140;4.088;2023-11-21T00:03:29;30.50;;;15.93;;
32216;SDS011;67098;51.140;4.088;2023-11-21T00:05:55;29.88;;;16.55;;
32216;SDS011;67098;51.140;4.088;2023-11-21T00:08:21;25.27;;;15.10;;
32216;SDS011;67098;51.140;4.088;2023-11-21T00:10:47;28.67;;;15.82;;
32216;SDS011;67098;51.140;4.088;2023-11-21T00:13:13;23.17;;;13.77;;
32216;SDS011;67098;51.140;4.088;2023-11-21T00:15:39;27.02;;;14.57;;
32216;SDS011;67098;51.140;4.088;2023-11-21T00:18:05;21.23;;;13.70;;
32216;SDS011;67098;51.140;4.088;2023-11-21T00:20:31;22.02;;;13.90;;
32216;SDS011;67098;51.140;4.088;2023-11-21T00:22:57;25.67;;;13.75;;
32216;SDS011;67098;51.140;4.088;2023-11-21T00:25:24;23.15;;;13.57;;
32216;SDS011;67098;51.140;4.088;2023-11-21T00:27:50;22.73;;;12.70;;
32216;SDS011;67098;51.140;4.088;2023-11-21T00:30:16;23.42;;;13.43;;
32216;SDS011;67098;51.140;4.088;2023-11-21T00:32:42;23.05;;;13.23;;
32216;SDS011;67098;51.140;4.088;2023-11-21T00:35:08;20.70;;;13.25;;
32216;SDS011;67098;51.140;4.088;2023-11-21T00:37:34;23.10;;;13.73;;
32216;SDS011;67098;51.140;4.088;2023-11-21T00:39:59;24.13;;;14.07;;
32216;SDS011;67098;51.140;4.088;2023-11-21T00:42:30;21.48;;;13.90;;
32216;SDS011;67098;51.140;4.088;2023-11-21T00:44:57;24.95;;;16.15;;
32216;SDS011;67098;51.140;4.088;2023-11-21T00:47:22;27.90;;;16.40;;
32216;SDS011;67098;51.140;4.088;2023-11-21T00:49:48;25.52;;;14.98;;
32216;SDS011;67098;51.140;4.088;2023-11-21T00:52:14;33.85;;;17.02;;
32216;SDS011;67098;51.140;4.088;2023-11-21T00:54:40;31.52;;;16.15;;
32216;SDS011;67098;51.140;4.088;2023-11-21T00:57:06;26.20;;;15.25;;
32216;SDS011;67098;51.140;4.088;2023-11-21T00:59:33;31.80;;;16.42;;
32216;SDS011;67098;51.140;4.088;2023-11-21T01:02:00;25.25;;;15.55;;
32216;SDS011;67098;51.140;4.088;2023-11-21T01:04:26;27.13;;;15.23;;
32216;SDS011;67098;51.140;4.088;2023-11-21T01:06:52;31.27;;;15.05;;
32216;SDS011;67098;51.140;4.088;2023-11-21T01:09:18;27.40;;;15.43;;
32216;SDS011;67098;51.140;4.088;2023-11-21T01:11:44;27.63;;;15.02;;
32216;SDS011;67098;51.140;4.088;2023-11-21T01:14:10;28.95;;;15.65;;
32216;SDS011;67098;51.140;4.088;2023-11-21T01:16:36;30.05;;;16.40;;
32216;SDS011;67098;51.140;4.088;2023-11-21T01:19:01;32.20;;;15.93;;
32216;SDS011;67098;51.140;4.088;2023-11-21T01:21:27;29.77;;;15.82;;
32216;SDS011;67098;51.140;4.088;2023-11-21T01:23:53;31.80;;;17.92;;
32216;SDS011;67098;51.140;4.088;2023-11-21T01:26:20;28.50;;;15.82;;
32216;SDS011;67098;51.140;4.088;2023-11-21T01:28:46;29.73;;;16.60;;
32216;SDS011;67098;51.140;4.088;2023-11-21T01:31:14;31.20;;;17.27;;
32216;SDS011;67098;51.140;4.088;2023-11-21T01:33:40;32.88;;;17.15;;
32216;SDS011;67098;51.140;4.088;2023-11-21T01:36:06;29.67;;;16.83;;
32216;SDS011;67098;51.140;4.088;2023-11-21T01:38:33;30.15;;;17.67;;
32216;SDS011;67098;51.140;4.088;2023-11-21T01:40:59;32.58;;;17.15;;
32216;SDS011;67098;51.140;4.088;2023-11-21T01:43:26;33.83;;;17.98;;
32216;SDS011;67098;51.140;4.088;2023-11-21T01:45:53;31.48;;;17.73;;
32216;SDS011;67098;51.140;4.088;2023-11-21T01:48:22;38.72;;;20.25;;
32216;SDS011;67098;51.140;4.088;2023-11-21T01:50:49;35.95;;;19.50;;
32216;SDS011;67098;51.140;4.088;2023-11-21T01:53:15;43.80;;;20.60;;
32216;SDS011;67098;51.140;4.088;2023-11-21T01:55:41;34.78;;;18.48;;
32216;SDS011;67098;51.140;4.088;2023-11-21T01:58:08;38.47;;;20.02;;
32216;SDS011;67098;51.140;4.088;2023-11-21T02:00:36;40.47;;;19.58;;
32216;SDS011;67098;51.140;4.088;2023-11-21T02:03:03;44.17;;;20.60;;
32216;SDS011;67098;51.140;4.088;2023-11-21T02:05:29;34.53;;;20.02;;
32216;SDS011;67098;51.140;4.088;2023-11-21T02:07:55;39.38;;;20.63;;
32216;SDS011;67098;51.140;4.088;2023-11-21T02:10:21;37.00;;;20.08;;
32216;SDS011;67098;51.140;4.088;2023-11-21T02:12:50;45.00;;;22.25;;
32216;SDS011;67098;51.140;4.088;2023-11-21T02:15:17;37.38;;;19.73;;
32216;SDS011;67098;51.140;4.088;2023-11-21T02:17:48;36.33;;;20.33;;
32216;SDS011;67098;51.140;4.088;2023-11-21T02:20:19;41.55;;;20.23;;
32216;SDS011;67098;51.140;4.088;2023-11-21T02:22:53;40.30;;;20.90;;
32216;SDS011;67098;51.140;4.088;2023-11-21T02:25:25;35.00;;;19.55;;
32216;SDS011;67098;51.140;4.088;2023-11-21T02:28:02;35.33;;;20.42;;
32216;SDS011;67098;51.140;4.088;2023-11-21T02:30:29;39.80;;;20.38;;
32216;SDS011;67098;51.140;4.088;2023-11-21T02:32:57;43.40;;;21.23;;
32216;SDS011;67098;51.140;4.088;2023-11-21T02:35:23;40.63;;;21.67;;
32216;SDS011;67098;51.140;4.088;2023-11-21T02:37:51;41.20;;;21.45;;
32216;SDS011;67098;51.140;4.088;2023-11-21T02:40:17;46.33;;;21.05;;
32216;SDS011;67098;51.140;4.088;2023-11-21T02:42:45;40.50;;;21.27;;
32216;SDS011;67098;51.140;4.088;2023-11-21T02:45:16;44.35;;;23.33;;
32216;SDS011;67098;51.140;4.088;2023-11-21T02:47:44;41.22;;;21.50;;
32216;SDS011;67098;51.140;4.088;2023-11-21T02:50:10;41.20;;;22.58;;
32216;SDS011;67098;51.140;4.088;2023-11-21T02:52:35;41.33;;;21.67;;
32216;SDS011;67098;51.140;4.088;2023-11-21T02:55:02;42.75;;;21.73;;
32216;SDS011;67098;51.140;4.088;2023-11-21T02:57:28;46.33;;;22.83;;
32216;SDS011;67098;51.140;4.088;2023-11-21T02:59:54;42.22;;;22.33;;
32216;SDS011;67098;51.140;4.088;2023-11-21T03:02:20;43.08;;;22.23;;
32216;SDS011;67098;51.140;4.088;2023-11-21T03:04:47;43.10;;;22.67;;
32216;SDS011;67098;51.140;4.088;2023-11-21T03:07:15;41.47;;;22.77;;
32216;SDS011;67098;51.140;4.088;2023-11-21T03:09:42;46.42;;;22.95;;
32216;SDS011;67098;51.140;4.088;2023-11-21T03:12:09;41.03;;;22.05;;
32216;SDS011;67098;51.140;4.088;2023-11-21T03:14:37;41.58;;;22.10;;
32216;SDS011;67098;51.140;4.088;2023-11-21T03:17:03;36.92;;;21.08;;
32216;SDS011;67098;51.140;4.088;2023-11-21T03:19:30;45.38;;;22.60;;
32216;SDS011;67098;51.140;4.088;2023-11-21T03:21:56;43.00;;;23.50;;
32216;SDS011;67098;51.140;4.088;2023-11-21T03:24:22;42.08;;;22.77;;
32216;SDS011;67098;51.140;4.088;2023-11-21T03:26:48;38.83;;;21.27;;
32216;SDS011;67098;51.140;4.088;2023-11-21T03:29:14;42.72;;;21.85;;
32216;SDS011;67098;51.140;4.088;2023-11-21T03:31:40;41.95;;;21.83;;
32216;SDS011;67098;51.140;4.088;2023-11-21T03:34:06;46.20;;;23.42;;
32216;SDS011;67098;51.140;4.088;2023-11-21T03:36:32;43.65;;;22.08;;
32216;SDS011;67098;51.140;4.088;2023-11-21T03:38:57;46.10;;;23.70;;
32216;SDS011;67098;51.140;4.088;2023-11-21T03:41:23;44.58;;;21.77;;
32216;SDS011;67098;51.140;4.088;2023-11-21T03:43:49;37.92;;;21.23;;
32216;SDS011;67098;51.140;4.088;2023-11-21T03:46:15;42.25;;;21.92;;
32216;SDS011;67098;51.140;4.088;2023-11-21T03:48:40;41.28;;;23.02;;
32216;SDS011;67098;51.140;4.088;2023-11-21T03:51:07;45.30;;;21.88;;
32216;SDS011;67098;51.140;4.088;2023-11-21T03:53:32;44.00;;;21.80;;
32216;SDS011;67098;51.140;4.088;2023-11-21T03:55:58;44.70;;;22.33;;
32216;SDS011;67098;51.140;4.088;2023-11-21T03:58:26;47.60;;;23.17;;
32216;SDS011;67098;51.140;4.088;2023-11-21T04:00:52;42.60;;;22.48;;
32216;SDS011;67098;51.140;4.088;2023-11-21T04:03:18;43.90;;;21.65;;
32216;SDS011;67098;51.140;4.088;2023-11-21T04:05:45;49.63;;;23.65;;
32216;SDS011;67098;51.140;4.088;2023-11-21T04:08:11;40.75;;;22.27;;
32216;SDS011;67098;51.140;4.088;2023-11-21T04:10:36;41.47;;;21.73;;
32216;SDS011;67098;51.140;4.088;2023-11-21T04:13:04;43.33;;;23.40;;
32216;SDS011;67098;51.140;4.088;2023-11-21T04:15:31;44.40;;;22.05;;
32216;SDS011;67098;51.140;4.088;2023-11-21T04:17:57;43.80;;;22.13;;
32216;SDS011;67098;51.140;4.088;2023-11-21T04:20:23;45.10;;;22.05;;
32216;SDS011;67098;51.140;4.088;2023-11-21T04:22:49;46.88;;;22.80;;
32216;SDS011;67098;51.140;4.088;2023-11-21T04:25:15;46.47;;;22.95;;
32216;SDS011;67098;51.140;4.088;2023-11-21T04:27:42;42.35;;;22.35;;
32216;SDS011;67098;51.140;4.088;2023-11-21T04:30:09;41.25;;;21.50;;
32216;SDS011;67098;51.140;4.088;2023-11-21T04:32:36;45.03;;;21.35;;
32216;SDS011;67098;51.140;4.088;2023-11-21T04:35:02;38.05;;;21.48;;
32216;SDS011;67098;51.140;4.088;2023-11-21T04:37:29;37.33;;;21.52;;
32216;SDS011;67098;51.140;4.088;2023-11-21T04:39:55;39.50;;;22.80;;
32216;SDS011;67098;51.140;4.088;2023-11-21T04:42:20;36.45;;;22.08;;
32216;SDS011;67098;51.140;4.088;2023-11-21T04:44:46;40.45;;;22.23;;
32216;SDS011;67098;51.140;4.088;2023-11-21T04:47:13;46.97;;;22.33;;
32216;SDS011;67098;51.140;4.088;2023-11-21T04:49:41;40.10;;;22.48;;
32216;SDS011;67098;51.140;4.088;2023-11-21T04:52:07;44.95;;;22.58;;
32216;SDS011;67098;51.140;4.088;2023-11-21T04:54:35;47.33;;;22.63;;
32216;SDS011;67098;51.140;4.088;2023-11-21T04:57:01;37.95;;;22.30;;
32216;SDS011;67098;51.140;4.088;2023-11-21T04:59:26;46.15;;;22.50;;
32216;SDS011;67098;51.140;4.088;2023-11-21T05:01:52;37.65;;;21.80;;
32216;SDS011;67098;51.140;4.088;2023-11-21T05:04:21;42.67;;;22.42;;
32216;SDS011;67098;51.140;4.088;2023-11-21T05:06:47;46.03;;;21.95;;
32216;SDS011;67098;51.140;4.088;2023-11-21T05:09:13;37.58;;;21.38;;
32216;SDS011;67098;51.140;4.088;2023-11-21T05:11:40;37.47;;;22.08;;
32216;SDS011;67098;51.140;4.088;2023-11-21T05:14:06;38.50;;;21.52;;
32216;SDS011;67098;51.140;4.088;2023-11-21T05:16:33;43.70;;;22.42;;
32216;SDS011;67098;51.140;4.088;2023-11-21T05:19:00;43.83;;;22.98;;
32216;SDS011;67098;51.140;4.088;2023-11-21T05:21:29;41.30;;;23.23;;
32216;SDS011;67098;51.140;4.088;2023-11-21T05:23:57;43.20;;;21.63;;
32216;SDS011;67098;51.140;4.088;2023-11-21T05:26:23;42.28;;;23.55;;
32216;SDS011;67098;51.140;4.088;2023-11-21T05:28:49;37.08;;;21.45;;
32216;SDS011;67098;51.140;4.088;2023-11-21T05:31:15;40.58;;;21.80;;
32216;SDS011;67098;51.140;4.088;2023-11-21T05:33:41;43.72;;;22.40;;
32216;SDS011;67098;51.140;4.088;2023-11-21T05:36:07;41.63;;;21.38;;
32216;SDS011;67098;51.140;4.088;2023-11-21T05:38:33;36.40;;;21.45;;
32216;SDS011;67098;51.140;4.088;2023-11-21T05:41:00;41.28;;;21.58;;
32216;SDS011;67098;51.140;4.088;2023-11-21T05:43:26;37.70;;;21.27;;
32216;SDS011;67098;51.140;4.088;2023-11-21T05:45:54;39.70;;;20.95;;
32216;SDS011;67098;51.140;4.088;2023-11-21T05:48:20;43.65;;;21.67;;
32216;SDS011;67098;51.140;4.088;2023-11-21T05:50:46;47.10;;;22.27;;
32216;SDS011;67098;51.140;4.088;2023-11-21T05:53:14;39.08;;;20.45;;
32216;SDS011;67098;51.140;4.088;2023-11-21T05:55:41;42.08;;;21.63;;
32216;SDS011;67098;51.140;4.088;2023-11-21T05:58:07;40.00;;;22.45;;
32216;SDS011;67098;51.140;4.088;2023-11-21T06:00:33;39.38;;;22.95;;
32216;SDS011;67098;51.140;4.088;2023-11-21T06:02:59;38.70;;;22.10;;
32216;SDS011;67098;51.140;4.088;2023-11-21T06:05:25;43.42;;;22.38;;
32216;SDS011;67098;51.140;4.088;2023-11-21T06:07:52;39.28;;;21.38;;
32216;SDS011;67098;51.140;4.088;2023-11-21T06:10:20;48.40;;;22.77;;
32216;SDS011;67098;51.140;4.088;2023-11-21T06:12:46;38.40;;;21.45;;
32216;SDS011;67098;51.140;4.088;2023-11-21T06:15:12;40.17;;;20.83;;
32216;SDS011;67098;51.140;4.088;2023-11-21T06:17:39;40.35;;;22.55;;
32216;SDS011;67098;51.140;4.088;2023-11-21T06:20:05;45.03;;;21.92;;
32216;SDS011;67098;51.140;4.088;2023-11-21T06:22:39;41.80;;;21.67;;
32216;SDS011;67098;51.140;4.088;2023-11-21T06:25:06;50.35;;;23.63;;
32216;SDS011;67098;51.140;4.088;2023-11-21T06:27:33;43.20;;;21.70;;
32216;SDS011;67098;51.140;4.088;2023-11-21T06:30:04;41.28;;;22.77;;
32216;SDS011;67098;51.140;4.088;2023-11-21T06:32:31;46.28;;;23.33;;
32216;SDS011;67098;51.140;4.088;2023-11-21T06:34:57;44.40;;;23.05;;
32216;SDS011;67098;51.140;4.088;2023-11-21T06:37:26;44.92;;;24.10;;
32216;SDS011;67098;51.140;4.088;2023-11-21T06:39:53;48.15;;;23.50;;
32216;SDS011;67098;51.140;4.088;2023-11-21T06:42:19;47.80;;;22.70;;
32216;SDS011;67098;51.140;4.088;2023-11-21T06:44:45;46.58;;;22.75;;
32216;SDS011;67098;51.140;4.088;2023-11-21T06:47:11;48.33;;;23.45;;
32216;SDS011;67098;51.140;4.088;2023-11-21T06:49:37;39.67;;;23.17;;
32216;SDS011;67098;51.140;4.088;2023-11-21T06:52:04;44.17;;;23.73;;
32216;SDS011;67098;51.140;4.088;2023-11-21T06:54:32;36.92;;;20.30;;
32216;SDS011;67098;51.140;4.088;2023-11-21T06:56:59;28.05;;;15.18;;
32216;SDS011;67098;51.140;4.088;2023-11-21T06:59:24;23.70;;;13.57;;
32216;SDS011;67098;51.140;4.088;2023-11-21T07:01:50;27.65;;;15.00;;
32216;SDS011;67098;51.140;4.088;2023-11-21T07:04:16;28.33;;;14.85;;
32216;SDS011;67098;51.140;4.088;2023-11-21T07:06:43;29.60;;;15.85;;
32216;SDS011;67098;51.140;4.088;2023-11-21T07:09:09;29.92;;;15.52;;
32216;SDS011;67098;51.140;4.088;2023-11-21T07:11:36;33.53;;;16.38;;
32216;SDS011;67098;51.140;4.088;2023-11-21T07:14:05;32.80;;;16.15;;
32216;SDS011;67098;51.140;4.088;2023-11-21T07:16:36;38.83;;;17.92;;
32216;SDS011;67098;51.140;4.088;2023-11-21T07:19:03;31.15;;;16.40;;
32216;SDS011;67098;51.140;4.088;2023-11-21T07:21:31;30.88;;;16.83;;
32216;SDS011;67098;51.140;4.088;2023-11-21T07:23:59;40.47;;;20.73;;
32216;SDS011;67098;51.140;4.088;2023-11-21T07:26:26;38.22;;;19.17;;
32216;SDS011;67098;51.140;4.088;2023-11-21T07:28:52;45.95;;;20.50;;
32216;SDS011;67098;51.140;4.088;2023-11-21T07:31:18;42.38;;;20.17;;
32216;SDS011;67098;51.140;4.088;2023-11-21T07:33:45;49.80;;;21.20;;
32216;SDS011;67098;51.140;4.088;2023-11-21T07:36:14;42.80;;;20.63;;
32216;SDS011;67098;51.140;4.088;2023-11-21T07:38:41;48.88;;;20.90;;
32216;SDS011;67098;51.140;4.088;2023-11-21T07:41:07;50.25;;;21.85;;
32216;SDS011;67098;51.140;4.088;2023-11-21T07:43:34;47.85;;;23.48;;
32216;SDS011;67098;51.140;4.088;2023-11-21T07:46:04;50.85;;;23.17;;
32216;SDS011;67098;51.140;4.088;2023-11-21T07:48:30;51.85;;;24.85;;
32216;SDS011;67098;51.140;4.088;2023-11-21T07:50:56;49.15;;;22.70;;
32216;SDS011;67098;51.140;4.088;2023-11-21T07:53:23;52.90;;;24.13;;
32216;SDS011;67098;51.140;4.088;2023-11-21T07:55:51;58.80;;;24.45;;
32216;SDS011;67098;51.140;4.088;2023-11-21T07:58:17;57.95;;;24.52;;
32216;SDS011;67098;51.140;4.088;2023-11-21T08:00:43;56.45;;;24.30;;
32216;SDS011;67098;51.140;4.088;2023-11-21T08:03:09;56.80;;;23.45;;
32216;SDS011;67098;51.140;4.088;2023-11-21T08:05:36;66.65;;;25.45;;
32216;SDS011;67098;51.140;4.088;2023-11-21T08:08:02;56.80;;;24.30;;
32216;SDS011;67098;51.140;4.088;2023-11-21T08:10:28;57.88;;;25.35;;
32216;SDS011;67098;51.140;4.088;2023-11-21T08:12:55;51.40;;;22.70;;
32216;SDS011;67098;51.140;4.088;2023-11-21T08:15:21;45.67;;;21.27;;
32216;SDS011;67098;51.140;4.088;2023-11-21T08:17:47;52.38;;;22.08;;
32216;SDS011;67098;51.140;4.088;2023-11-21T08:20:13;49.33;;;21.95;;
32216;SDS011;67098;51.140;4.088;2023-11-21T08:22:44;42.42;;;20.77;;
32216;SDS011;67098;51.140;4.088;2023-11-21T08:25:10;45.97;;;21.45;;
32216;SDS011;67098;51.140;4.088;2023-11-21T08:27:36;45.53;;;22.75;;
32216;SDS011;67098;51.140;4.088;2023-11-21T08:30:02;47.72;;;22.17;;
32216;SDS011;67098;51.140;4.088;2023-11-21T08:32:29;47.58;;;22.52;;
32216;SDS011;67098;51.140;4.088;2023-11-21T08:34:57;47.17;;;21.77;;
32216;SDS011;67098;51.140;4.088;2023-11-21T08:37:23;50.10;;;22.90;;
32216;SDS011;67098;51.140;4.088;2023-11-21T08:39:49;48.65;;;23.67;;
32216;SDS011;67098;51.140;4.088;2023-11-21T08:42:15;51.53;;;24.92;;
32216;SDS011;67098;51.140;4.088;2023-11-21T08:44:41;53.03;;;24.73;;
32216;SDS011;67098;51.140;4.088;2023-11-21T08:47:06;57.70;;;25.05;;
32216;SDS011;67098;51.140;4.088;2023-11-21T08:49:32;46.30;;;22.73;;
32216;SDS011;67098;51.140;4.088;2023-11-21T08:51:58;41.38;;;20.33;;
32216;SDS011;67098;51.140;4.088;2023-11-21T08:54:25;50.40;;;20.40;;
32216;SDS011;67098;51.140;4.088;2023-11-21T08:56:51;36.97;;;17.08;;
32216;SDS011;67098;51.140;4.088;2023-11-21T08:59:18;33.38;;;16.63;;
32216;SDS011;67098;51.140;4.088;2023-11-21T09:01:45;33.47;;;17.00;;
32216;SDS011;67098;51.140;4.088;2023-11-21T09:04:11;32.20;;;16.05;;
32216;SDS011;67098;51.140;4.088;2023-11-21T09:06:38;28.15;;;14.57;;
32216;SDS011;67098;51.140;4.088;2023-11-21T09:09:05;28.52;;;14.50;;
32216;SDS011;67098;51.140;4.088;2023-11-21T09:11:31;27.73;;;13.98;;
32216;SDS011;67098;51.140;4.088;2023-11-21T09:13:59;22.33;;;12.55;;
32216;SDS011;67098;51.140;4.088;2023-11-21T09:16:25;29.17;;;13.57;;
32216;SDS011;67098;51.140;4.088;2023-11-21T09:18:51;25.73;;;12.50;;
32216;SDS011;67098;51.140;4.088;2023-11-21T09:21:17;21.83;;;11.75;;
32216;SDS011;67098;51.140;4.088;2023-11-21T09:23:45;23.23;;;11.80;;
32216;SDS011;67098;51.140;4.088;2023-11-21T09:26:11;26.15;;;13.02;;
32216;SDS011;67098;51.140;4.088;2023-11-21T09:28:37;28.25;;;12.55;;
32216;SDS011;67098;51.140;4.088;2023-11-21T09:31:04;25.50;;;13.02;;
32216;SDS011;67098;51.140;4.088;2023-11-21T09:33:33;23.38;;;12.52;;
32216;SDS011;67098;51.140;4.088;2023-11-21T09:35:59;21.40;;;11.55;;
32216;SDS011;67098;51.140;4.088;2023-11-21T09:38:26;23.23;;;12.32;;
32216;SDS011;67098;51.140;4.088;2023-11-21T09:40:53;18.80;;;10.48;;
32216;SDS011;67098;51.140;4.088;2023-11-21T09:43:20;18.25;;;9.88;;
32216;SDS011;67098;51.140;4.088;2023-11-21T09:45:48;18.23;;;9.93;;
32216;SDS011;67098;51.140;4.088;2023-11-21T09:48:21;17.70;;;9.38;;
32216;SDS011;67098;51.140;4.088;2023-11-21T09:50:50;16.25;;;9.40;;
32216;SDS011;67098;51.140;4.088;2023-11-21T09:53:20;13.88;;;8.40;;
32216;SDS011;67098;51.140;4.088;2023-11-21T09:55:48;16.05;;;8.70;;
32216;SDS011;67098;51.140;4.088;2023-11-21T09:58:16;16.48;;;7.68;;
32216;SDS011;67098;51.140;4.088;2023-11-21T10:00:46;14.30;;;8.05;;
32216;SDS011;67098;51.140;4.088;2023-11-21T10:03:12;17.45;;;7.45;;
32216;SDS011;67098;51.140;4.088;2023-11-21T10:05:39;14.88;;;7.55;;
32216;SDS011;67098;51.140;4.088;2023-11-21T10:08:07;12.63;;;7.00;;
32216;SDS011;67098;51.140;4.088;2023-11-21T10:10:35;20.48;;;6.93;;
32216;SDS011;67098;51.140;4.088;2023-11-21T10:13:05;20.05;;;6.60;;
32216;SDS011;67098;51.140;4.088;2023-11-21T10:15:35;15.15;;;5.35;;
32216;SDS011;67098;51.140;4.088;2023-11-21T10:18:05;15.13;;;6.10;;
32216;SDS011;67098;51.140;4.088;2023-11-21T10:23:03;13.63;;;5.00;;
32216;SDS011;67098;51.140;4.088;2023-11-21T10:25:32;11.63;;;4.35;;
32216;SDS011;67098;51.140;4.088;2023-11-21T10:27:59;12.48;;;4.03;;
32216;SDS011;67098;51.140;4.088;2023-11-21T10:30:33;11.38;;;4.35;;
32216;SDS011;67098;51.140;4.088;2023-11-21T10:33:02;11.60;;;3.70;;
32216;SDS011;67098;51.140;4.088;2023-11-21T10:38:16;15.73;;;3.65;;
32216;SDS011;67098;51.140;4.088;2023-11-21T10:40:43;15.50;;;4.53;;
32216;SDS011;67098;51.140;4.088;2023-11-21T10:43:10;9.02;;;2.80;;
32216;SDS011;67098;51.140;4.088;2023-11-21T10:45:37;12.27;;;3.63;;
32216;SDS011;67098;51.140;4.088;2023-11-21T10:48:06;12.82;;;2.80;;
32216;SDS011;67098;51.140;4.088;2023-11-21T10:50:36;11.27;;;2.80;;
32216;SDS011;67098;51.140;4.088;2023-11-21T10:53:02;8.80;;;2.90;;
32216;SDS011;67098;51.140;4.088;2023-11-21T10:55:29;14.57;;;3.05;;
32216;SDS011;67098;51.140;4.088;2023-11-21T10:57:58;10.80;;;2.97;;
32216;SDS011;67098;51.140;4.088;2023-11-21T11:00:27;13.93;;;3.00;;
32216;SDS011;67098;51.140;4.088;2023-11-21T11:02:54;10.75;;;2.97;;
32216;SDS011;67098;51.140;4.088;2023-11-21T11:05:21;11.02;;;2.67;;
32216;SDS011;67098;51.140;4.088;2023-11-21T11:07:51;9.55;;;2.85;;
32216;SDS011;67098;51.140;4.088;2023-11-21T11:10:37;10.18;;;2.63;;
32216;SDS011;67098;51.140;4.088;2023-11-21T11:13:03;8.15;;;2.47;;
32216;SDS011;67098;51.140;4.088;2023-11-21T11:15:31;14.13;;;3.47;;
32216;SDS011;67098;51.140;4.088;2023-11-21T11:17:58;9.48;;;2.58;;
32216;SDS011;67098;51.140;4.088;2023-11-21T11:20:26;7.50;;;2.80;;
32216;SDS011;67098;51.140;4.088;2023-11-21T11:28:15;11.88;;;2.80;;
32216;SDS011;67098;51.140;4.088;2023-11-21T11:37:07;10.45;;;2.63;;
32216;SDS011;67098;51.140;4.088;2023-11-21T11:39:41;10.63;;;3.03;;
32216;SDS011;67098;51.140;4.088;2023-11-21T11:42:10;8.40;;;2.45;;
32216;SDS011;67098;51.140;4.088;2023-11-21T11:49:55;8.98;;;2.80;;
32216;SDS011;67098;51.140;4.088;2023-11-21T11:52:43;13.07;;;2.70;;
32216;SDS011;67098;51.140;4.088;2023-11-21T11:55:09;9.25;;;2.17;;
32216;SDS011;67098;51.140;4.088;2023-11-21T11:57:36;7.25;;;2.40;;
32216;SDS011;67098;51.140;4.088;2023-11-21T12:00:19;7.55;;;2.70;;
32216;SDS011;67098;51.140;4.088;2023-11-21T12:02:52;7.30;;;2.60;;
32216;SDS011;67098;51.140;4.088;2023-11-21T12:05:19;9.15;;;2.90;;
32216;SDS011;67098;51.140;4.088;2023-11-21T12:07:48;6.25;;;2.80;;
32216;SDS011;67098;51.140;4.088;2023-11-21T12:10:19;10.40;;;3.30;;
32216;SDS011;67098;51.140;4.088;2023-11-21T12:12:58;8.00;;;2.97;;
32216;SDS011;67098;51.140;4.088;2023-11-21T12:15:28;7.27;;;3.27;;
32216;SDS011;67098;51.140;4.088;2023-11-21T12:17:57;8.95;;;3.60;;
32216;SDS011;67098;51.140;4.088;2023-11-21T12:20:26;8.18;;;3.63;;
32216;SDS011;67098;51.140;4.088;2023-11-21T12:22:53;11.35;;;3.55;;
32216;SDS011;67098;51.140;4.088;2023-11-21T12:25:26;9.02;;;4.95;;
32216;SDS011;67098;51.140;4.088;2023-11-21T12:28:00;14.57;;;4.80;;
32216;SDS011;67098;51.140;4.088;2023-11-21T12:30:28;13.05;;;5.20;;
32216;SDS011;67098;51.140;4.088;2023-11-21T12:33:00;11.75;;;6.10;;
32216;SDS011;67098;51.140;4.088;2023-11-21T12:35:27;10.02;;;5.72;;
32216;SDS011;67098;51.140;4.088;2023-11-21T12:37:58;9.98;;;5.40;;
32216;SDS011;67098;51.140;4.088;2023-11-21T12:40:25;8.80;;;5.70;;
32216;SDS011;67098;51.140;4.088;2023-11-21T12:42:53;12.48;;;6.50;;
32216;SDS011;67098;51.140;4.088;2023-11-21T12:45:21;11.23;;;5.93;;
32216;SDS011;67098;51.140;4.088;2023-11-21T12:52:54;13.05;;;7.38;;
32216;SDS011;67098;51.140;4.088;2023-11-21T12:55:23;11.68;;;7.50;;
32216;SDS011;67098;51.140;4.088;2023-11-21T12:57:51;14.40;;;7.60;;
32216;SDS011;67098;51.140;4.088;2023-11-21T13:00:20;16.15;;;7.93;;
32216;SDS011;67098;51.140;4.088;2023-11-21T13:02:54;12.00;;;7.75;;
32216;SDS011;67098;51.140;4.088;2023-11-21T13:05:34;11.90;;;7.43;;
32216;SDS011;67098;51.140;4.088;2023-11-21T13:08:05;10.70;;;7.60;;
32216;SDS011;67098;51.140;4.088;2023-11-21T13:10:38;11.93;;;7.13;;
32216;SDS011;67098;51.140;4.088;2023-11-21T13:13:05;12.88;;;6.85;;
32216;SDS011;67098;51.140;4.088;2023-11-21T13:15:38;15.20;;;6.60;;
32216;SDS011;67098;51.140;4.088;2023-11-21T13:18:06;12.40;;;7.03;;
32216;SDS011;67098;51.140;4.088;2023-11-21T13:20:32;13.32;;;7.53;;
32216;SDS011;67098;51.140;4.088;2023-11-21T13:22:59;10.13;;;6.93;;
32216;SDS011;67098;51.140;4.088;2023-11-21T13:25:26;16.08;;;7.20;;
32216;SDS011;67098;51.140;4.088;2023-11-21T13:27:55;12.73;;;7.60;;
32216;SDS011;67098;51.140;4.088;2023-11-21T13:30:21;15.07;;;7.13;;
32216;SDS011;67098;51.140;4.088;2023-11-21T13:32:52;13.17;;;7.00;;
32216;SDS011;67098;51.140;4.088;2023-11-21T13:35:30;9.68;;;6.60;;
32216;SDS011;67098;51.140;4.088;2023-11-21T13:38:07;10.03;;;4.97;;
32216;SDS011;67098;51.140;4.088;2023-11-21T13:40:35;9.05;;;4.90;;
32216;SDS011;67098;51.140;4.088;2023-11-21T13:43:08;7.53;;;4.82;;
32216;SDS011;67098;51.140;4.088;2023-11-21T13:45:40;10.55;;;5.43;;
32216;SDS011;67098;51.140;4.088;2023-11-21T13:48:08;8.75;;;4.75;;
32216;SDS011;67098;51.140;4.088;2023-11-21T13:50:35;9.43;;;5.65;;
32216;SDS011;67098;51.140;4.088;2023-11-21T13:53:11;12.18;;;5.65;;
32216;SDS011;67098;51.140;4.088;2023-11-21T13:55:48;8.70;;;5.15;;
32216;SDS011;67098;51.140;4.088;2023-11-21T13:58:23;8.32;;;4.95;;
32216;SDS011;67098;51.140;4.088;2023-11-21T14:01:08;13.02;;;5.32;;
32216;SDS011;67098;51.140;4.088;2023-11-21T14:04:00;9.07;;;5.70;;
32216;SDS011;67098;51.140;4.088;2023-11-21T14:06:43;13.15;;;6.18;;
32216;SDS011;67098;51.140;4.088;2023-11-21T14:09:18;9.45;;;5.18;;
32216;SDS011;67098;51.140;4.088;2023-11-21T14:11:55;9.13;;;5.03;;
32216;SDS011;67098;51.140;4.088;2023-11-21T14:14:22;6.47;;;4.55;;
32216;SDS011;67098;51.140;4.088;2023-11-21T14:16:55;10.20;;;5.57;;
32216;SDS011;67098;51.140;4.088;2023-11-21T14:19:22;7.10;;;4.82;;
32216;SDS011;67098;51.140;4.088;2023-11-21T14:21:52;9.57;;;5.38;;
32216;SDS011;67098;51.140;4.088;2023-11-21T14:24:18;7.50;;;5.20;;
32216;SDS011;67098;51.140;4.088;2023-11-21T14:26:45;8.40;;;5.10;;
32216;SDS011;67098;51.140;4.088;2023-11-21T14:29:12;9.02;;;5.15;;
32216;SDS011;67098;51.140;4.088;2023-11-21T14:31:45;8.00;;;4.50;;
32216;SDS011;67098;51.140;4.088;2023-11-21T14:34:11;7.80;;;4.78;;
32216;SDS011;67098;51.140;4.088;2023-11-21T14:36:37;7.68;;;4.40;;
32216;SDS011;67098;51.140;4.088;2023-11-21T14:39:04;8.18;;;4.00;;
32216;SDS011;67098;51.140;4.088;2023-11-21T14:41:34;8.52;;;4.60;;
32216;SDS011;67098;51.140;4.088;2023-11-21T14:44:03;7.20;;;4.45;;
32216;SDS011;67098;51.140;4.088;2023-11-21T14:46:29;7.63;;;4.53;;
32216;SDS011;67098;51.140;4.088;2023-11-21T14:48:56;8.38;;;4.97;;
32216;SDS011;67098;51.140;4.088;2023-11-21T14:51:27;8.23;;;4.80;;
32216;SDS011;67098;51.140;4.088;2023-11-21T14:53:57;8.65;;;5.03;;
32216;SDS011;67098;51.140;4.088;2023-11-21T14:56:31;8.75;;;4.97;;
32216;SDS011;67098;51.140;4.088;2023-11-21T14:59:02;9.30;;;5.10;;